Terminal Aerodrome Forecast
Issued by NWS

Home | Current Version | Previous Version | Text Only | Print | Product List | Glossary Off
Versions: 1 2 3 4 5 6 7 8 9 10 11 12 13 14 15 16 17

187
FTUS43 KBIS 061126
TAFDIK
TAF
KDIK 061126Z 0612/0712 25014KT P6SM SCT150
     FM061400 25015G23KT P6SM BKN200 WS020/29040KT
     FM061700 27020G29KT P6SM SCT200
     FM062000 27027G37KT P6SM SCT200
     FM070000 28031G42KT P6SM BKN090=

USA.gov is the U.S. government's official web portal to all federal, state and local government web resources and services.